createdAt,value
2019-03-05T00:00:03.060Z,998.61
2019-03-05T00:01:03.155Z,998.62
2019-03-05T00:02:03.145Z,998.61
2019-03-05T00:03:03.504Z,998.64
2019-03-05T00:04:03.267Z,998.63
2019-03-05T00:05:03.211Z,998.65
2019-03-05T00:06:03.307Z,998.60
2019-03-05T00:07:03.322Z,998.64
2019-03-05T00:08:03.311Z,998.64
2019-03-05T00:09:03.690Z,998.54
2019-03-05T00:10:03.371Z,998.54
2019-03-05T00:11:03.454Z,998.63
2019-03-05T00:12:03.425Z,998.64
2019-03-05T00:13:03.463Z,998.47
2019-03-05T00:14:03.535Z,998.53
2019-03-05T00:15:03.866Z,998.61
2019-03-05T00:16:03.595Z,998.55
2019-03-05T00:17:03.585Z,998.52
2019-03-05T00:18:03.608Z,998.56
2019-03-05T00:19:03.648Z,998.57
2019-03-05T00:20:03.719Z,998.59
2019-03-05T00:21:04.048Z,998.62
2019-03-05T00:22:03.725Z,998.56
2019-03-05T00:23:03.813Z,998.57
2019-03-05T00:24:03.844Z,998.57
2019-03-05T00:25:03.830Z,998.60
2019-03-05T00:26:03.907Z,998.66
2019-03-05T00:27:03.932Z,998.57
2019-03-05T00:28:04.372Z,998.55
2019-03-05T00:29:03.968Z,998.62
2019-03-05T00:30:03.973Z,998.63
2019-03-05T00:31:04.082Z,998.70
2019-03-05T00:32:04.087Z,998.67
2019-03-05T00:33:04.121Z,998.68
2019-03-05T00:34:04.093Z,998.69
2019-03-05T00:35:04.471Z,998.71
2019-03-05T00:36:04.156Z,998.76
2019-03-05T00:37:04.230Z,998.78
2019-03-05T00:38:04.270Z,998.78
2019-03-05T00:39:04.299Z,998.78
2019-03-05T00:41:04.351Z,998.81
2019-03-05T00:42:04.637Z,998.92
2019-03-05T00:43:04.417Z,998.88
2019-03-05T00:44:04.446Z,998.90
2019-03-05T00:45:04.476Z,998.95
2019-03-05T00:46:04.451Z,998.81
2019-03-05T00:47:04.548Z,998.91
2019-03-05T00:48:04.563Z,998.89
2019-03-05T00:49:04.843Z,998.90
2019-03-05T00:50:04.626Z,998.89
2019-03-05T00:51:04.657Z,998.94
2019-03-05T00:52:04.636Z,998.96
2019-03-05T00:53:04.663Z,999.04
2019-03-05T00:54:04.749Z,999.01
2019-03-05T00:55:04.773Z,999.08
2019-03-05T00:56:05.062Z,998.98
2019-03-05T00:57:04.781Z,998.99
2019-03-05T00:58:04.818Z,999.01
2019-03-05T00:59:04.899Z,998.95
2019-03-05T01:00:04.929Z,999.06
2019-03-05T01:01:05.049Z,999.00
2019-03-05T01:02:04.932Z,998.99
2019-03-05T01:03:05.313Z,998.98
2019-03-05T01:04:05.050Z,998.97
2019-03-05T01:05:05.078Z,998.96
2019-03-05T01:06:05.061Z,998.90
2019-03-05T01:07:05.138Z,998.99
2019-03-05T01:08:05.179Z,998.80
2019-03-05T01:09:05.153Z,998.95
2019-03-05T01:10:05.530Z,998.98
2019-03-05T01:11:05.259Z,999.07
2019-03-05T01:12:05.292Z,999.04
2019-03-05T01:13:05.413Z,999.07
2019-03-05T01:16:05.408Z,999.11
2019-03-05T01:17:05.733Z,999.14
2019-03-05T01:18:05.466Z,999.10
2019-03-05T01:19:05.449Z,999.13
2019-03-05T01:20:05.528Z,999.05
2019-03-05T01:21:05.512Z,999.18
2019-03-05T01:22:05.588Z,999.11
2019-03-05T01:23:05.621Z,999.23
2019-03-05T01:24:05.948Z,999.14
2019-03-05T01:25:05.627Z,999.17
2019-03-05T01:26:05.716Z,999.30
2019-03-05T01:27:05.742Z,999.19
2019-03-05T01:28:05.720Z,999.29
2019-03-05T01:29:05.802Z,999.23
2019-03-05T01:30:05.776Z,999.26
2019-03-05T01:31:06.280Z,999.27
2019-03-05T01:32:05.896Z,999.21
2019-03-05T01:33:05.920Z,999.22
2019-03-05T01:34:05.896Z,999.23
2019-03-05T01:35:05.988Z,999.26
2019-03-05T01:38:06.074Z,999.29
2019-03-05T01:40:06.426Z,999.31
2019-03-05T01:41:06.160Z,999.32
2019-03-05T01:42:06.133Z,999.30
2019-03-05T01:43:06.219Z,999.38
2019-03-05T01:44:06.248Z,999.31
2019-03-05T01:45:06.276Z,999.36
2019-03-05T01:46:06.304Z,999.35
2019-03-05T01:47:06.641Z,999.23
2019-03-05T01:48:06.370Z,999.36
2019-03-05T01:49:06.353Z,999.29
2019-03-05T01:50:06.379Z,999.37
2019-03-05T01:51:06.456Z,999.36
2019-03-05T01:52:06.498Z,999.38
2019-03-05T01:54:06.546Z,999.26
2019-03-05T01:55:06.883Z,999.39
2019-03-05T01:56:06.607Z,999.35
2019-03-05T01:57:06.644Z,999.29
2019-03-05T01:58:06.624Z,999.30
2019-03-05T01:59:06.696Z,999.22
2019-03-05T02:00:06.674Z,999.34
2019-03-05T02:01:06.760Z,999.33
2019-03-05T02:02:07.090Z,999.35
2019-03-05T02:03:06.815Z,999.27
2019-03-05T02:04:06.854Z,999.26
2019-03-05T02:05:06.981Z,999.30
2019-03-05T02:06:06.909Z,999.33
2019-03-05T02:07:06.941Z,999.34
2019-03-05T02:08:07.270Z,999.32
2019-03-05T02:09:07.301Z,999.29
2019-03-05T02:10:06.983Z,999.30
2019-03-05T02:11:07.058Z,999.31
2019-03-05T02:12:07.038Z,999.34
2019-03-05T02:13:07.120Z,999.39
2019-03-05T02:14:07.149Z,999.39
2019-03-05T02:16:07.213Z,999.37
2019-03-05T02:17:07.492Z,999.41
2019-03-05T02:18:07.267Z,999.38
2019-03-05T02:19:07.303Z,999.46
2019-03-05T02:20:07.332Z,999.41
2019-03-05T02:21:07.354Z,999.45
2019-03-05T02:23:07.416Z,999.40
2019-03-05T02:24:07.700Z,999.41
2019-03-05T02:25:07.477Z,999.37
2019-03-05T02:26:07.506Z,999.37
2019-03-05T02:27:07.532Z,999.37
2019-03-05T02:28:07.513Z,999.36
2019-03-05T02:29:07.599Z,999.34
2019-03-05T02:30:07.651Z,999.45
2019-03-05T02:31:07.957Z,999.37
2019-03-05T02:32:07.693Z,999.40
2019-03-05T02:33:07.663Z,999.34
2019-03-05T02:34:07.753Z,999.29
2019-03-05T02:35:07.783Z,999.43
2019-03-05T02:36:07.811Z,999.41
2019-03-05T02:37:07.787Z,999.34
2019-03-05T02:38:08.173Z,999.42
2019-03-05T02:39:07.899Z,999.41
2019-03-05T02:40:07.925Z,999.34
2019-03-05T02:41:07.955Z,999.35
2019-03-05T02:42:07.985Z,999.38
2019-03-05T02:43:08.015Z,999.45
2019-03-05T02:44:08.041Z,999.37
2019-03-05T02:45:08.321Z,999.46
2019-03-05T02:46:08.103Z,999.46
2019-03-05T02:47:08.137Z,999.30
2019-03-05T02:48:08.114Z,999.43
2019-03-05T02:49:08.141Z,999.48
2019-03-05T02:50:08.172Z,999.42
2019-03-05T02:51:08.261Z,999.42
2019-03-05T02:52:08.590Z,999.40
2019-03-05T02:53:08.312Z,999.48
2019-03-05T02:54:08.345Z,999.43
2019-03-05T02:55:08.372Z,999.45
2019-03-05T02:56:08.361Z,999.48
2019-03-05T02:57:08.400Z,999.38
2019-03-05T02:58:08.462Z,999.22
2019-03-05T02:59:08.798Z,999.34
2019-03-05T03:00:08.472Z,999.39
2019-03-05T03:01:08.517Z,999.39
2019-03-05T03:02:08.536Z,999.34
2019-03-05T03:03:08.565Z,999.40
2019-03-05T03:04:08.644Z,999.36
2019-03-05T03:05:08.625Z,999.36
2019-03-05T03:06:08.958Z,999.30
2019-03-05T03:07:08.689Z,999.38
2019-03-05T03:08:08.708Z,999.37
2019-03-05T03:09:08.798Z,999.37
2019-03-05T03:10:08.768Z,999.34
2019-03-05T03:11:08.854Z,999.33
2019-03-05T03:12:08.879Z,999.35
2019-03-05T03:13:09.211Z,999.34
2019-03-05T03:14:08.940Z,999.33
2019-03-05T03:15:08.922Z,999.37
2019-03-05T03:16:08.955Z,999.33
2019-03-05T03:17:08.991Z,999.28
2019-03-05T03:18:09.006Z,999.30
2019-03-05T03:19:09.087Z,999.35
2019-03-05T03:20:09.429Z,999.33
2019-03-05T03:21:09.098Z,999.39
2019-03-05T03:22:09.135Z,999.39
2019-03-05T03:23:09.213Z,999.36
2019-03-05T03:24:09.186Z,999.30
2019-03-05T03:25:09.293Z,999.33
2019-03-05T03:27:09.332Z,999.35
2019-03-05T03:28:09.602Z,999.39
2019-03-05T03:29:09.394Z,999.30
2019-03-05T03:30:09.420Z,999.33
2019-03-05T03:31:09.448Z,999.36
2019-03-05T03:32:09.489Z,999.27
2019-03-05T03:33:09.456Z,999.44
2019-03-05T03:34:09.483Z,999.44
2019-03-05T03:35:09.573Z,999.46
2019-03-05T03:36:09.564Z,999.45
2019-03-05T03:37:09.686Z,999.48
2019-03-05T03:38:09.603Z,999.55
2019-03-05T03:39:09.694Z,999.61
2019-03-05T03:41:09.745Z,999.61
2019-03-05T03:42:10.084Z,999.66
2019-03-05T03:44:09.830Z,999.71
2019-03-05T03:45:09.817Z,999.74
2019-03-05T03:46:09.845Z,999.70
2019-03-05T03:47:09.926Z,999.82
2019-03-05T03:48:09.905Z,999.80
2019-03-05T03:49:10.241Z,999.81
2019-03-05T03:50:09.966Z,999.72
2019-03-05T03:51:09.989Z,999.76
2019-03-05T03:52:10.026Z,999.72
2019-03-05T03:53:10.117Z,999.73
2019-03-05T03:55:10.165Z,999.72
2019-03-05T03:56:10.494Z,999.75
2019-03-05T03:57:10.175Z,999.73
2019-03-05T03:58:10.203Z,999.73
2019-03-05T03:59:10.281Z,999.69
2019-03-05T04:00:10.309Z,999.69
2019-03-05T04:01:10.293Z,999.70
2019-03-05T04:02:10.323Z,999.68
2019-03-05T04:03:10.698Z,999.65
2019-03-05T04:04:10.480Z,999.64
2019-03-05T04:05:10.411Z,999.61
2019-03-05T04:06:10.443Z,999.65
2019-03-05T04:07:10.529Z,999.68
2019-03-05T04:08:10.707Z,999.72
2019-03-05T04:09:10.574Z,999.71
2019-03-05T04:10:10.612Z,999.74
2019-03-05T04:11:10.589Z,999.74
2019-03-05T04:13:10.693Z,999.74
2019-03-05T04:14:10.733Z,999.80
2019-03-05T04:15:10.794Z,999.79
2019-03-05T04:17:11.066Z,999.76
2019-03-05T04:18:10.849Z,999.78
2019-03-05T04:19:10.828Z,999.75
2019-03-05T04:20:10.909Z,999.67
2019-03-05T04:21:10.886Z,999.66
2019-03-05T04:22:10.914Z,999.63
2019-03-05T04:23:11.250Z,999.62
2019-03-05T04:24:11.023Z,999.65
2019-03-05T04:26:11.040Z,999.62
2019-03-05T04:27:11.071Z,999.58
2019-03-05T04:28:11.095Z,999.54
2019-03-05T04:29:11.176Z,999.53
2019-03-05T04:30:11.309Z,999.59
2019-03-05T04:31:11.282Z,999.61
2019-03-05T04:32:11.222Z,999.64
2019-03-05T04:33:11.239Z,999.64
2019-03-05T04:35:11.350Z,999.62
2019-03-05T04:36:11.329Z,999.63
2019-03-05T04:37:11.368Z,999.63
2019-03-05T04:38:11.544Z,999.64
2019-03-05T04:39:11.473Z,999.63
2019-03-05T04:40:11.455Z,999.66
2019-03-05T04:41:11.480Z,999.61
2019-03-05T04:42:11.861Z,999.61
2019-03-05T04:43:11.599Z,999.60
2019-03-05T04:44:11.573Z,999.61
2019-03-05T04:45:11.663Z,999.64
2019-03-05T04:46:11.630Z,999.54
2019-03-05T04:47:11.710Z,999.56
2019-03-05T04:48:11.692Z,999.55
2019-03-05T04:49:12.029Z,999.54
2019-03-05T04:50:11.797Z,999.58
2019-03-05T04:51:11.835Z,999.56
2019-03-05T04:52:11.862Z,999.58
2019-03-05T04:53:11.846Z,999.61
2019-03-05T04:54:11.917Z,999.54
2019-03-05T04:55:11.949Z,999.61
2019-03-05T04:56:11.985Z,999.58
2019-03-05T04:57:11.963Z,999.59
2019-03-05T04:59:12.068Z,999.56
2019-03-05T05:00:12.050Z,999.53
2019-03-05T05:01:12.124Z,999.61
2019-03-05T05:02:12.409Z,999.60
2019-03-05T05:03:12.187Z,999.61
2019-03-05T05:04:12.168Z,999.62
2019-03-05T05:05:12.199Z,999.60
2019-03-05T05:06:12.278Z,999.62
2019-03-05T05:07:12.309Z,999.59
2019-03-05T05:08:12.284Z,999.64
2019-03-05T05:10:12.778Z,999.65
2019-03-05T05:12:12.461Z,999.65
2019-03-05T05:13:12.485Z,999.75
2019-03-05T05:14:12.515Z,999.73
2019-03-05T05:15:12.547Z,999.75
2019-03-05T05:16:12.572Z,999.79
2019-03-05T05:17:12.856Z,999.71
2019-03-05T05:18:12.637Z,999.75
2019-03-05T05:19:12.672Z,999.81
2019-03-05T05:20:12.650Z,999.77
2019-03-05T05:21:12.720Z,999.75
2019-03-05T05:22:12.710Z,999.75
2019-03-05T05:23:12.733Z,999.78
2019-03-05T05:24:13.113Z,999.75
2019-03-05T05:25:12.796Z,999.83
2019-03-05T05:26:12.827Z,999.75
2019-03-05T05:27:12.908Z,999.79
2019-03-05T05:28:12.878Z,999.78
2019-03-05T05:29:12.958Z,999.72
2019-03-05T05:30:12.944Z,999.78
2019-03-05T05:31:13.323Z,999.73
2019-03-05T05:32:13.002Z,999.72
2019-03-05T05:33:13.083Z,999.70
2019-03-05T05:34:13.058Z,999.76
2019-03-05T05:35:13.147Z,999.75
2019-03-05T05:36:13.174Z,999.75
2019-03-05T05:37:13.203Z,999.77
2019-03-05T05:38:13.536Z,999.74
2019-03-05T05:39:13.216Z,999.75
2019-03-05T05:40:13.240Z,999.71
2019-03-05T05:41:13.267Z,999.68
2019-03-05T05:42:13.345Z,999.73
2019-03-05T05:43:13.379Z,999.60
2019-03-05T05:44:13.361Z,999.81
2019-03-05T05:45:13.746Z,999.79
2019-03-05T05:46:13.432Z,999.72
2019-03-05T05:47:13.501Z,999.73
2019-03-05T05:48:13.482Z,999.75
2019-03-05T05:49:13.563Z,999.72
2019-03-05T05:50:13.540Z,999.69
2019-03-05T05:51:13.568Z,999.66
2019-03-05T05:52:13.950Z,999.68
2019-03-05T05:53:13.630Z,999.71
2019-03-05T05:54:13.751Z,999.70
2019-03-05T05:55:13.738Z,999.71
2019-03-05T05:57:13.791Z,999.69
2019-03-05T05:58:13.781Z,999.74
2019-03-05T05:59:14.101Z,999.69
2019-03-05T06:00:13.889Z,999.76
2019-03-05T06:01:13.920Z,999.79
2019-03-05T06:02:13.897Z,999.83
2019-03-05T06:03:13.978Z,999.81
2019-03-05T06:04:13.967Z,999.83
2019-03-05T06:05:14.285Z,999.82
2019-03-05T06:06:14.061Z,999.79
2019-03-05T06:07:14.091Z,999.82
2019-03-05T06:08:14.125Z,999.84
2019-03-05T06:09:14.100Z,999.81
2019-03-05T06:10:14.183Z,999.86
2019-03-05T06:11:14.526Z,999.90
2019-03-05T06:12:14.196Z,999.88
2019-03-05T06:13:14.218Z,999.91
2019-03-05T06:14:14.254Z,999.94
2019-03-05T06:15:14.334Z,999.92
2019-03-05T06:16:14.361Z,999.97
2019-03-05T06:17:14.390Z,999.95
2019-03-05T06:18:14.383Z,999.93
2019-03-05T06:19:14.456Z,999.94
2019-03-05T06:20:14.433Z,999.90
2019-03-05T06:21:14.555Z,999.91
2019-03-05T06:22:14.537Z,999.94
2019-03-05T06:23:14.869Z,999.99
2019-03-05T06:24:14.547Z,999.95
2019-03-05T06:25:14.609Z,1000.01
2019-03-05T06:26:14.690Z,1000.05
2019-03-05T06:27:14.692Z,1000.04
2019-03-05T06:28:14.732Z,1000.04
2019-03-05T06:29:14.705Z,1000.07
2019-03-05T06:30:14.729Z,1000.04
2019-03-05T06:31:14.768Z,1000.08
2019-03-05T06:32:17.377Z,1000.15
2019-03-05T06:33:14.828Z,1000.11
2019-03-05T06:34:14.848Z,1000.07
2019-03-05T06:35:14.883Z,1000.11
2019-03-05T06:36:15.205Z,1000.12
2019-03-05T06:38:15.030Z,1000.12
2019-03-05T06:39:15.050Z,1000.10
2019-03-05T06:40:15.037Z,1000.12
2019-03-05T06:41:15.065Z,1000.02
2019-03-05T06:42:15.134Z,1000.12
2019-03-05T06:43:15.162Z,1000.13
2019-03-05T06:44:15.153Z,1000.10
2019-03-05T06:45:15.171Z,1000.14
2019-03-05T06:46:15.269Z,1000.11
2019-03-05T06:47:15.288Z,1000.18
2019-03-05T06:48:15.327Z,1000.16
2019-03-05T06:49:15.299Z,1000.13
2019-03-05T06:50:15.365Z,1000.16
2019-03-05T06:51:15.437Z,1000.12
2019-03-05T06:52:15.434Z,1000.10
2019-03-05T06:53:15.473Z,1000.10
2019-03-05T06:54:15.524Z,1000.12
2019-03-05T06:55:15.843Z,1000.09
2019-03-05T06:56:15.511Z,1000.12
2019-03-05T06:57:15.561Z,1000.17
2019-03-05T06:58:15.641Z,1000.17
2019-03-05T06:59:15.644Z,1000.16
2019-03-05T07:00:15.976Z,1000.17
2019-03-05T07:01:15.674Z,1000.17
2019-03-05T07:02:15.677Z,1000.24
2019-03-05T07:03:15.763Z,1000.25
2019-03-05T07:04:15.792Z,1000.25
2019-03-05T07:05:15.772Z,1000.28
2019-03-05T07:06:15.801Z,1000.24
2019-03-05T07:07:15.884Z,1000.28
2019-03-05T07:08:15.960Z,1000.29
2019-03-05T07:09:15.893Z,1000.32
2019-03-05T07:10:15.922Z,1000.35
2019-03-05T07:11:16.015Z,1000.33
2019-03-05T07:12:15.980Z,1000.40
2019-03-05T07:13:16.419Z,1000.36
2019-03-05T07:14:16.043Z,1000.36
2019-03-05T07:15:16.070Z,1000.32
2019-03-05T07:16:16.148Z,1000.34
2019-03-05T07:17:16.135Z,1000.36
2019-03-05T07:18:16.166Z,1000.37
2019-03-05T07:19:16.238Z,1000.35
2019-03-05T07:20:16.565Z,1000.40
2019-03-05T07:21:16.249Z,1000.40
2019-03-05T07:22:16.325Z,1000.40
2019-03-05T07:23:16.310Z,1000.43
2019-03-05T07:24:16.336Z,1000.42
2019-03-05T07:25:16.433Z,1000.41
2019-03-05T07:26:16.395Z,1000.38
2019-03-05T07:27:16.793Z,1000.39
2019-03-05T07:28:16.517Z,1000.42
2019-03-05T07:29:18.122Z,1000.41
2019-03-05T07:30:16.568Z,1000.40
2019-03-05T07:31:16.594Z,1000.47
2019-03-05T07:32:16.573Z,1000.44
2019-03-05T07:33:16.622Z,1000.46
2019-03-05T07:34:16.939Z,1000.47
2019-03-05T07:35:16.710Z,1000.48
2019-03-05T07:36:16.739Z,1000.49
2019-03-05T07:37:16.738Z,1000.56
2019-03-05T07:38:16.802Z,1000.58
2019-03-05T07:39:16.789Z,1000.54
2019-03-05T07:40:16.823Z,1000.57
2019-03-05T07:41:16.843Z,1000.54
2019-03-05T07:42:16.919Z,1000.56
2019-03-05T07:43:16.950Z,1000.57
2019-03-05T07:44:16.935Z,1000.54
2019-03-05T07:45:16.972Z,1000.58
2019-03-05T07:46:17.043Z,1000.57
2019-03-05T07:47:17.021Z,1000.60
2019-03-05T07:48:17.048Z,1000.63
2019-03-05T07:49:17.076Z,1000.61
2019-03-05T07:50:17.113Z,1000.63
2019-03-05T07:51:17.187Z,1000.67
2019-03-05T07:52:17.234Z,1000.68
2019-03-05T07:53:17.204Z,1000.73
2019-03-05T07:54:17.283Z,1000.70
2019-03-05T07:55:17.311Z,1000.73
2019-03-05T07:56:17.293Z,1000.73
2019-03-05T07:57:17.366Z,1000.73
2019-03-05T07:58:17.348Z,1000.70
2019-03-05T07:59:17.432Z,1000.70
2019-03-05T08:00:17.417Z,1000.64
2019-03-05T08:01:22.356Z,1000.70
2019-03-05T08:02:17.519Z,1000.67
2019-03-05T08:03:17.544Z,1000.70
2019-03-05T08:04:17.524Z,1000.78
2019-03-05T08:05:17.914Z,1000.77
2019-03-05T08:06:17.592Z,1000.80
2019-03-05T08:07:17.720Z,1000.82
2019-03-05T08:08:26.401Z,1000.77
2019-03-05T08:09:17.723Z,1000.78
2019-03-05T08:10:17.710Z,1000.78
2019-03-05T08:11:17.799Z,1000.82
2019-03-05T08:12:18.068Z,1000.85
2019-03-05T08:13:17.844Z,1000.92
2019-03-05T08:14:17.832Z,1000.89
2019-03-05T08:15:17.914Z,1000.91
2019-03-05T08:16:17.892Z,1000.90
2019-03-05T08:17:17.918Z,1000.90
2019-03-05T08:18:18.007Z,1000.86
2019-03-05T08:19:17.975Z,1000.91
2019-03-05T08:20:18.010Z,1000.91
2019-03-05T08:21:18.034Z,1000.91
2019-03-05T08:22:18.069Z,1000.96
2019-03-05T08:23:18.148Z,1000.92
2019-03-05T08:24:18.175Z,1000.94
2019-03-05T08:25:18.156Z,1000.95
2019-03-05T08:26:18.195Z,1000.97
2019-03-05T08:27:18.271Z,1001.01
2019-03-05T08:28:18.291Z,1001.01
2019-03-05T08:29:18.275Z,1001.04
2019-03-05T08:30:18.412Z,1001.03
2019-03-05T08:31:18.687Z,1001.06
2019-03-05T08:32:18.421Z,1001.08
2019-03-05T08:33:18.390Z,1001.08
2019-03-05T08:34:18.475Z,1001.07
2019-03-05T08:35:18.609Z,1001.10
2019-03-05T08:36:18.622Z,1001.07
2019-03-05T08:37:18.811Z,1001.15
2019-03-05T08:38:18.541Z,1001.15
2019-03-05T08:39:18.574Z,1001.17
2019-03-05T08:40:18.653Z,1001.19
2019-03-05T08:41:18.638Z,1001.18
2019-03-05T08:42:18.663Z,1001.22
2019-03-05T08:43:19.039Z,1001.24
2019-03-05T08:45:28.758Z,1001.23
2019-03-05T08:46:18.835Z,1001.18
2019-03-05T08:47:18.816Z,1001.19
2019-03-05T08:48:18.846Z,1001.21
2019-03-05T08:49:19.167Z,1001.18
2019-03-05T08:50:18.969Z,1001.14
2019-03-05T08:51:18.933Z,1001.20
2019-03-05T08:52:18.958Z,1001.20
2019-03-05T08:53:18.990Z,1001.20
2019-03-05T08:54:19.076Z,1001.18
2019-03-05T08:55:19.104Z,1001.20
2019-03-05T08:56:19.135Z,1001.19
2019-03-05T08:57:19.130Z,1001.20
2019-03-05T08:58:19.197Z,1001.19
2019-03-05T08:59:19.247Z,1001.24
2019-03-05T09:00:19.203Z,1001.23
2019-03-05T09:01:19.291Z,1001.20
2019-03-05T09:02:19.258Z,1001.22
2019-03-05T09:03:19.347Z,1001.26
2019-03-05T09:04:19.370Z,1001.29
2019-03-05T09:05:19.410Z,1001.31
2019-03-05T09:06:19.383Z,1001.26
2019-03-05T09:07:19.416Z,1001.29
2019-03-05T09:08:19.792Z,1001.28
2019-03-05T09:09:19.476Z,1001.38
2019-03-05T09:10:19.501Z,1001.35
2019-03-05T09:11:19.584Z,1001.35
2019-03-05T09:12:19.706Z,1001.33
2019-03-05T09:13:19.642Z,1001.30
2019-03-05T09:14:19.618Z,1001.27
2019-03-05T09:15:19.703Z,1001.32
2019-03-05T09:16:19.728Z,1001.31
2019-03-05T09:17:19.710Z,1001.24
2019-03-05T09:18:19.790Z,1001.31
2019-03-05T09:19:19.816Z,1001.32
2019-03-05T09:20:19.850Z,1001.28
2019-03-05T09:21:19.875Z,1001.35
2019-03-05T09:22:19.854Z,1001.33
2019-03-05T09:23:19.950Z,1001.35
2019-03-05T09:24:19.966Z,1001.35
2019-03-05T09:25:20.002Z,1001.33
2019-03-05T09:26:19.975Z,1001.39
2019-03-05T09:27:20.356Z,1001.41
2019-03-05T09:28:20.086Z,1001.41
2019-03-05T09:29:20.069Z,1001.40
2019-03-05T09:30:20.101Z,1001.38
2019-03-05T09:31:20.188Z,1001.39
2019-03-05T09:32:20.160Z,1001.42
2019-03-05T09:33:20.541Z,1001.43
2019-03-05T09:34:20.239Z,1001.47
2019-03-05T09:35:20.347Z,1001.53
2019-03-05T09:36:20.282Z,1001.50
2019-03-05T09:37:20.308Z,1001.48
2019-03-05T09:38:20.405Z,1001.49
2019-03-05T09:39:20.424Z,1001.51
2019-03-05T09:40:20.693Z,1001.51
2019-03-05T09:41:20.423Z,1001.51
2019-03-05T09:42:20.455Z,1001.47
2019-03-05T09:43:20.540Z,1001.52
2019-03-05T09:44:20.679Z,1001.51
2019-03-05T09:45:20.595Z,1001.52
2019-03-05T09:46:20.625Z,1001.54
2019-03-05T09:47:21.070Z,1001.52
2019-03-05T09:48:20.689Z,1001.55
2019-03-05T09:49:20.734Z,1001.53
2019-03-05T09:50:20.703Z,1001.53
2019-03-05T09:51:20.790Z,1001.53
2019-03-05T09:52:20.772Z,1001.57
2019-03-05T09:53:20.852Z,1001.64
2019-03-05T09:54:20.870Z,1001.63
2019-03-05T09:55:20.907Z,1001.64
2019-03-05T09:56:20.886Z,1001.66
2019-03-05T09:57:20.909Z,1001.60
2019-03-05T09:58:20.938Z,1001.60
2019-03-05T09:59:20.969Z,1001.65
2019-03-05T10:00:21.052Z,1001.66
2019-03-05T10:01:21.030Z,1001.72
2019-03-05T10:02:21.063Z,1001.68
2019-03-05T10:03:21.140Z,1001.71
2019-03-05T10:04:21.133Z,1001.68
2019-03-05T10:05:21.201Z,1001.67
2019-03-05T10:06:21.531Z,1001.71
2019-03-05T10:07:21.209Z,1001.73
2019-03-05T10:08:31.706Z,1001.74
2019-03-05T10:09:21.268Z,1001.74
2019-03-05T10:10:21.297Z,1001.76
2019-03-05T10:11:21.386Z,1001.71
2019-03-05T10:13:21.439Z,1001.69
2019-03-05T10:14:21.469Z,1001.72
2019-03-05T10:15:21.499Z,1001.74
2019-03-05T10:16:21.533Z,1001.74
2019-03-05T10:17:21.566Z,1001.77
2019-03-05T10:18:21.590Z,1001.80
2019-03-05T10:19:21.571Z,1001.73
2019-03-05T10:20:21.653Z,1001.79
2019-03-05T10:21:21.675Z,1001.80
2019-03-05T10:22:21.660Z,1001.82
2019-03-05T10:23:21.745Z,1001.80
2019-03-05T10:24:21.723Z,1001.83
2019-03-05T10:25:21.756Z,1001.85
2019-03-05T10:26:21.827Z,1001.80
2019-03-05T10:27:21.867Z,1001.81
2019-03-05T10:28:21.843Z,1001.82
2019-03-05T10:29:21.873Z,1001.81
2019-03-05T10:30:25.056Z,1001.84
2019-03-05T10:31:21.985Z,1001.83
2019-03-05T10:32:22.014Z,1001.85
2019-03-05T10:33:21.998Z,1001.83
2019-03-05T10:34:22.018Z,1001.88
2019-03-05T10:35:22.056Z,1001.82
2019-03-05T10:36:22.151Z,1001.83
2019-03-05T10:37:22.112Z,1001.87
2019-03-05T10:38:22.512Z,1001.87
2019-03-05T10:39:30.405Z,1001.85
2019-03-05T10:40:22.255Z,1001.83
2019-03-05T10:41:22.248Z,1001.78
2019-03-05T10:42:22.317Z,1001.81
2019-03-05T10:43:22.348Z,1001.84
2019-03-05T10:44:22.379Z,1001.86
2019-03-05T10:45:22.660Z,1001.89
2019-03-05T10:46:22.438Z,1001.85
2019-03-05T10:47:22.412Z,1001.87
2019-03-05T10:48:22.496Z,1001.86
2019-03-05T10:49:22.492Z,1001.90
2019-03-05T10:50:22.549Z,1001.88
2019-03-05T10:51:22.529Z,1001.93
2019-03-05T10:52:22.568Z,1001.89
2019-03-05T10:53:22.649Z,1001.93
2019-03-05T10:54:22.674Z,1001.88
2019-03-05T10:55:26.258Z,1001.87
2019-03-05T10:56:22.683Z,1001.90
2019-03-05T10:57:22.715Z,1001.94
2019-03-05T10:58:33.365Z,1001.93
2019-03-05T10:59:22.830Z,1001.93
2019-03-05T11:00:22.853Z,1001.95
2019-03-05T11:01:22.991Z,1001.95
2019-03-05T11:02:22.868Z,1001.90
2019-03-05T11:03:22.905Z,1001.94
2019-03-05T11:04:22.975Z,1002.01
2019-03-05T11:05:23.254Z,1002.01
2019-03-05T11:06:23.034Z,1002.05
2019-03-05T11:07:23.019Z,1002.05
2019-03-05T11:08:23.103Z,1002.05
2019-03-05T11:09:23.138Z,1002.07
2019-03-05T11:10:23.116Z,1002.06
2019-03-05T11:11:23.198Z,1002.04
2019-03-05T11:12:23.221Z,1002.07
2019-03-05T11:13:23.204Z,1002.07
2019-03-05T11:14:23.234Z,1002.07
2019-03-05T11:15:23.323Z,1002.07
2019-03-05T11:16:30.660Z,1002.03
2019-03-05T11:17:23.323Z,1002.01
2019-03-05T11:18:29.484Z,1002.05
2019-03-05T11:19:23.435Z,1002.04
2019-03-05T11:20:23.479Z,1002.06
2019-03-05T11:21:23.499Z,1002.03
2019-03-05T11:22:23.483Z,1002.06
2019-03-05T11:23:23.656Z,1002.06
2019-03-05T11:24:23.543Z,1002.07
2019-03-05T11:25:23.566Z,1002.05
2019-03-05T11:26:23.644Z,1001.99
2019-03-05T11:27:23.670Z,1002.02
2019-03-05T11:28:23.663Z,1002.03
2019-03-05T11:29:23.688Z,1002.04
2019-03-05T11:30:35.272Z,1002.07
2019-03-05T11:31:23.800Z,1002.11
2019-03-05T11:32:23.825Z,1002.05
2019-03-05T11:33:23.864Z,1002.09
2019-03-05T11:34:23.836Z,1002.12
2019-03-05T11:35:23.924Z,1002.10
2019-03-05T11:36:23.958Z,1002.12
2019-03-05T11:37:23.987Z,1002.15
2019-03-05T11:38:23.968Z,1002.15
2019-03-05T11:39:23.999Z,1002.17
2019-03-05T11:40:24.036Z,1002.20
2019-03-05T11:41:24.058Z,1002.20
2019-03-05T11:42:24.432Z,1002.27
2019-03-05T11:43:24.164Z,1002.27
2019-03-05T11:44:24.200Z,1002.23
2019-03-05T11:45:24.177Z,1002.27
2019-03-05T11:46:24.214Z,1002.21
2019-03-05T11:47:24.290Z,1002.27
2019-03-05T11:48:24.322Z,1002.29
2019-03-05T11:49:24.299Z,1002.33
2019-03-05T11:50:24.328Z,1002.31
2019-03-05T11:51:24.407Z,1002.29
2019-03-05T11:52:24.444Z,1002.35
2019-03-05T11:53:24.468Z,1002.36
2019-03-05T11:54:24.516Z,1002.28
2019-03-05T11:55:24.531Z,1002.34
2019-03-05T11:56:24.510Z,1002.34
2019-03-05T11:57:24.691Z,1002.35
2019-03-05T11:58:24.572Z,1002.34
2019-03-05T11:59:25.275Z,1002.31
2019-03-05T12:00:24.677Z,1002.31
2019-03-05T12:01:24.961Z,1002.35
2019-03-05T12:02:24.708Z,1002.38
2019-03-05T12:03:24.778Z,1002.37
2019-03-05T12:04:24.802Z,1002.37
2019-03-05T12:05:24.789Z,1002.38
2019-03-05T12:06:24.814Z,1002.38
2019-03-05T12:07:25.207Z,1002.35
2019-03-05T12:08:24.925Z,1002.38
2019-03-05T12:09:24.909Z,1002.33
2019-03-05T12:10:24.939Z,1002.42
2019-03-05T12:11:25.018Z,1002.37
2019-03-05T12:12:24.999Z,1002.35
2019-03-05T12:14:25.422Z,1002.34
2019-03-05T12:15:25.144Z,1002.38
2019-03-05T12:16:25.200Z,1002.33
2019-03-05T12:17:25.204Z,1002.29
2019-03-05T12:18:25.550Z,1002.31
2019-03-05T12:19:25.221Z,1002.26
2019-03-05T12:20:25.549Z,1002.37
2019-03-05T12:21:25.273Z,1002.26
2019-03-05T12:22:27.992Z,1002.36
2019-03-05T12:23:25.388Z,1002.35
2019-03-05T12:24:25.723Z,1002.26
2019-03-05T12:25:25.410Z,1002.28
2019-03-05T12:26:25.452Z,1002.35
2019-03-05T12:27:25.808Z,1002.33
2019-03-05T12:28:25.545Z,1002.31
2019-03-05T12:29:25.550Z,1002.30
2019-03-05T12:30:25.608Z,1002.23
2019-03-05T12:31:25.584Z,1002.25
2019-03-05T12:32:25.672Z,1002.32
2019-03-05T12:34:25.699Z,1002.35
2019-03-05T12:35:26.060Z,1002.36
2019-03-05T12:36:25.816Z,1002.40
2019-03-05T12:37:25.766Z,1002.41
2019-03-05T12:38:25.802Z,1002.44
2019-03-05T12:39:25.829Z,1002.45
2019-03-05T12:40:25.859Z,1002.54
2019-03-05T12:41:26.010Z,1002.53
2019-03-05T12:42:25.917Z,1002.60